sensor_id;sensor_type;location;lat;lon;timestamp;pressure;altitude;pressure_sealevel;temperature;humidity
43155;BME280;34212;51.018;13.586;2023-03-04T00:01:13;98254.47;;;1.61;93.62
43155;BME280;34212;51.018;13.586;2023-03-04T00:06:14;98245.75;;;1.61;93.14
43155;BME280;34212;51.018;13.586;2023-03-04T00:11:16;98249.81;;;1.65;93.27
43155;BME280;34212;51.018;13.586;2023-03-04T00:16:17;98241.00;;;1.66;93.64
43155;BME280;34212;51.018;13.586;2023-03-04T00:21:19;98245.06;;;1.70;93.40
43155;BME280;34212;51.018;13.586;2023-03-04T00:26:20;98238.84;;;1.71;93.53
43155;BME280;34212;51.018;13.586;2023-03-04T00:31:23;98227.50;;;1.71;93.25
43155;BME280;34212;51.018;13.586;2023-03-04T00:36:24;98234.47;;;1.72;93.42
43155;BME280;34212;51.018;13.586;2023-03-04T00:41:29;98232.66;;;1.72;93.53
43155;BME280;34212;51.018;13.586;2023-03-04T00:46:30;98234.22;;;1.75;93.39
43155;BME280;34212;51.018;13.586;2023-03-04T00:51:32;98226.94;;;1.78;93.20
43155;BME280;34212;51.018;13.586;2023-03-04T00:56:34;98218.81;;;1.81;93.58
43155;BME280;34212;51.018;13.586;2023-03-04T01:01:35;98211.63;;;1.83;93.17
43155;BME280;34212;51.018;13.586;2023-03-04T01:06:37;98210.19;;;1.79;92.53
43155;BME280;34212;51.018;13.586;2023-03-04T01:11:39;98201.56;;;1.77;93.39
43155;BME280;34212;51.018;13.586;2023-03-04T01:16:40;98198.25;;;1.75;92.92
43155;BME280;34212;51.018;13.586;2023-03-04T01:21:42;98191.94;;;1.78;93.49
43155;BME280;34212;51.018;13.586;2023-03-04T01:26:43;98184.13;;;1.76;92.87
43155;BME280;34212;51.018;13.586;2023-03-04T01:31:45;98164.41;;;1.71;92.86
43155;BME280;34212;51.018;13.586;2023-03-04T01:36:46;98168.09;;;1.68;93.09
43155;BME280;34212;51.018;13.586;2023-03-04T01:41:48;98162.81;;;1.68;93.03
43155;BME280;34212;51.018;13.586;2023-03-04T01:46:52;98150.41;;;1.70;92.98
43155;BME280;34212;51.018;13.586;2023-03-04T01:51:54;98143.59;;;1.68;93.21
43155;BME280;34212;51.018;13.586;2023-03-04T01:56:56;98142.75;;;1.67;93.17
43155;BME280;34212;51.018;13.586;2023-03-04T02:02:00;98137.50;;;1.67;93.01
43155;BME280;34212;51.018;13.586;2023-03-04T02:07:03;98142.03;;;1.65;93.13
43155;BME280;34212;51.018;13.586;2023-03-04T02:12:05;98149.06;;;1.65;92.89
43155;BME280;34212;51.018;13.586;2023-03-04T02:17:11;98129.97;;;1.63;92.83
43155;BME280;34212;51.018;13.586;2023-03-04T02:22:12;98125.78;;;1.60;93.02
43155;BME280;34212;51.018;13.586;2023-03-04T02:27:14;98114.44;;;1.59;92.86
43155;BME280;34212;51.018;13.586;2023-03-04T02:32:16;98106.66;;;1.58;92.84
43155;BME280;34212;51.018;13.586;2023-03-04T02:37:18;98098.66;;;1.59;92.82
43155;BME280;34212;51.018;13.586;2023-03-04T02:42:23;98106.53;;;1.59;92.75
43155;BME280;34212;51.018;13.586;2023-03-04T02:47:24;98090.88;;;1.58;92.79
43155;BME280;34212;51.018;13.586;2023-03-04T02:52:28;98102.84;;;1.62;93.01
43155;BME280;34212;51.018;13.586;2023-03-04T02:57:31;98102.59;;;1.65;93.54
43155;BME280;34212;51.018;13.586;2023-03-04T03:02:32;98080.84;;;1.63;92.65
43155;BME280;34212;51.018;13.586;2023-03-04T03:07:34;98082.75;;;1.61;92.75
43155;BME280;34212;51.018;13.586;2023-03-04T03:12:36;98093.41;;;1.59;92.84
43155;BME280;34212;51.018;13.586;2023-03-04T03:17:38;98073.91;;;1.51;92.50
43155;BME280;34212;51.018;13.586;2023-03-04T03:22:40;98072.00;;;1.53;93.28
43155;BME280;34212;51.018;13.586;2023-03-04T03:27:43;98070.06;;;1.55;93.05
43155;BME280;34212;51.018;13.586;2023-03-04T03:32:46;98068.41;;;1.54;92.61
43155;BME280;34212;51.018;13.586;2023-03-04T03:37:47;98071.13;;;1.52;92.71
43155;BME280;34212;51.018;13.586;2023-03-04T03:42:49;98075.78;;;1.49;92.98
43155;BME280;34212;51.018;13.586;2023-03-04T03:47:50;98057.53;;;1.47;93.18
43155;BME280;34212;51.018;13.586;2023-03-04T03:52:52;98045.22;;;1.48;92.82
43155;BME280;34212;51.018;13.586;2023-03-04T03:57:53;98053.94;;;1.48;93.02
43155;BME280;34212;51.018;13.586;2023-03-04T04:02:56;98056.69;;;1.47;92.71
43155;BME280;34212;51.018;13.586;2023-03-04T04:07:58;98072.25;;;1.50;93.16
43155;BME280;34212;51.018;13.586;2023-03-04T04:13:00;98068.66;;;1.51;93.11
43155;BME280;34212;51.018;13.586;2023-03-04T04:18:01;98067.44;;;1.55;93.36
43155;BME280;34212;51.018;13.586;2023-03-04T04:23:03;98082.06;;;1.59;92.74
43155;BME280;34212;51.018;13.586;2023-03-04T04:28:04;98071.53;;;1.59;93.27
43155;BME280;34212;51.018;13.586;2023-03-04T04:33:06;98083.72;;;1.60;93.00
43155;BME280;34212;51.018;13.586;2023-03-04T04:38:08;98070.56;;;1.60;93.01
43155;BME280;34212;51.018;13.586;2023-03-04T04:43:10;98072.97;;;1.63;93.04
43155;BME280;34212;51.018;13.586;2023-03-04T04:48:11;98069.59;;;1.61;92.77
43155;BME280;34212;51.018;13.586;2023-03-04T04:53:13;98069.50;;;1.63;92.62
43155;BME280;34212;51.018;13.586;2023-03-04T04:58:14;98072.13;;;1.63;92.90
43155;BME280;34212;51.018;13.586;2023-03-04T05:03:16;98059.94;;;1.61;92.82
43155;BME280;34212;51.018;13.586;2023-03-04T05:08:19;98071.31;;;1.62;92.40
43155;BME280;34212;51.018;13.586;2023-03-04T05:13:20;98069.75;;;1.59;92.60
43155;BME280;34212;51.018;13.586;2023-03-04T05:18:24;98064.59;;;1.58;92.20
43155;BME280;34212;51.018;13.586;2023-03-04T05:23:29;98056.69;;;1.58;92.50
43155;BME280;34212;51.018;13.586;2023-03-04T05:28:31;98068.91;;;1.59;92.22
43155;BME280;34212;51.018;13.586;2023-03-04T05:33:33;98058.25;;;1.60;92.73
43155;BME280;34212;51.018;13.586;2023-03-04T05:38:35;98052.41;;;1.68;92.96
43155;BME280;34212;51.018;13.586;2023-03-04T05:43:37;98048.59;;;1.72;92.78
43155;BME280;34212;51.018;13.586;2023-03-04T05:48:43;98042.13;;;1.76;93.09
43155;BME280;34212;51.018;13.586;2023-03-04T05:53:45;98028.41;;;1.84;93.23
43155;BME280;34212;51.018;13.586;2023-03-04T05:58:46;98042.59;;;1.93;92.99
43155;BME280;34212;51.018;13.586;2023-03-04T06:03:48;98029.13;;;1.97;92.69
43155;BME280;34212;51.018;13.586;2023-03-04T06:08:50;98046.56;;;1.98;92.72
43155;BME280;34212;51.018;13.586;2023-03-04T06:13:51;98039.75;;;1.96;92.83
43155;BME280;34212;51.018;13.586;2023-03-04T06:18:53;98036.28;;;1.95;92.86
43155;BME280;34212;51.018;13.586;2023-03-04T06:23:54;98036.88;;;1.99;92.78
43155;BME280;34212;51.018;13.586;2023-03-04T06:28:56;98040.22;;;2.01;92.78
43155;BME280;34212;51.018;13.586;2023-03-04T06:33:57;98028.16;;;2.10;93.20
43155;BME280;34212;51.018;13.586;2023-03-04T06:39:02;98036.16;;;2.19;93.16
43155;BME280;34212;51.018;13.586;2023-03-04T06:44:04;98036.16;;;2.19;92.82
43155;BME280;34212;51.018;13.586;2023-03-04T06:49:06;98040.44;;;2.20;92.62
43155;BME280;34212;51.018;13.586;2023-03-04T06:54:08;98034.34;;;2.20;92.98
43155;BME280;34212;51.018;13.586;2023-03-04T06:59:10;98034.00;;;2.24;93.29
43155;BME280;34212;51.018;13.586;2023-03-04T07:04:12;98028.59;;;2.26;92.81
43155;BME280;34212;51.018;13.586;2023-03-04T07:09:14;98034.00;;;2.24;92.79
43155;BME280;34212;51.018;13.586;2023-03-04T07:14:16;98032.44;;;2.22;92.87
43155;BME280;34212;51.018;13.586;2023-03-04T07:19:17;98031.38;;;2.24;92.64
43155;BME280;34212;51.018;13.586;2023-03-04T07:24:19;98029.44;;;2.26;92.82
43155;BME280;34212;51.018;13.586;2023-03-04T07:29:20;98031.81;;;2.29;93.04
43155;BME280;34212;51.018;13.586;2023-03-04T07:34:22;98021.03;;;2.33;92.88
43155;BME280;34212;51.018;13.586;2023-03-04T07:39:23;98023.56;;;2.34;93.15
43155;BME280;34212;51.018;13.586;2023-03-04T07:44:25;98024.50;;;2.33;92.73
43155;BME280;34212;51.018;13.586;2023-03-04T07:49:26;98025.09;;;2.37;93.04
43155;BME280;34212;51.018;13.586;2023-03-04T07:54:28;98016.00;;;2.41;93.63
43155;BME280;34212;51.018;13.586;2023-03-04T07:59:29;98025.31;;;2.45;93.31
43155;BME280;34212;51.018;13.586;2023-03-04T08:04:31;98024.09;;;2.49;93.02
43155;BME280;34212;51.018;13.586;2023-03-04T08:09:33;98016.09;;;2.50;93.78
43155;BME280;34212;51.018;13.586;2023-03-04T08:14:34;98020.72;;;2.58;94.12
43155;BME280;34212;51.018;13.586;2023-03-04T08:19:36;98018.31;;;2.66;93.80
43155;BME280;34212;51.018;13.586;2023-03-04T08:24:38;98021.53;;;2.70;94.42
43155;BME280;34212;51.018;13.586;2023-03-04T08:29:40;98020.72;;;2.69;93.81
43155;BME280;34212;51.018;13.586;2023-03-04T08:34:41;98012.56;;;2.72;94.12
43155;BME280;34212;51.018;13.586;2023-03-04T08:39:45;98002.59;;;2.76;94.60
43155;BME280;34212;51.018;13.586;2023-03-04T08:44:47;97996.47;;;2.87;94.88
43155;BME280;34212;51.018;13.586;2023-03-04T08:49:48;98004.03;;;3.01;95.00
43155;BME280;34212;51.018;13.586;2023-03-04T08:54:50;98008.81;;;3.07;94.41
43155;BME280;34212;51.018;13.586;2023-03-04T08:59:52;98008.09;;;3.05;94.48
43155;BME280;34212;51.018;13.586;2023-03-04T09:04:53;98005.81;;;3.12;94.91
43155;BME280;34212;51.018;13.586;2023-03-04T09:09:55;98002.78;;;3.16;94.21
43155;BME280;34212;51.018;13.586;2023-03-04T09:14:56;98001.38;;;3.12;94.48
43155;BME280;34212;51.018;13.586;2023-03-04T09:20:12;98005.28;;;3.18;94.67
43155;BME280;34212;51.018;13.586;2023-03-04T09:25:14;97998.91;;;3.20;94.91
43155;BME280;34212;51.018;13.586;2023-03-04T09:35:53;98005.88;;;3.21;94.70
43155;BME280;34212;51.018;13.586;2023-03-04T09:40:55;97999.25;;;3.27;94.97
43155;BME280;34212;51.018;13.586;2023-03-04T09:46:02;98002.31;;;3.32;94.75
43155;BME280;34212;51.018;13.586;2023-03-04T09:56:39;97986.28;;;3.45;94.15
43155;BME280;34212;51.018;13.586;2023-03-04T10:01:41;97979.53;;;3.52;95.48
43155;BME280;34212;51.018;13.586;2023-03-04T10:06:47;97973.59;;;3.60;94.50
43155;BME280;34212;51.018;13.586;2023-03-04T10:51:36;97960.19;;;2.15;100.00
43155;BME280;34212;51.018;13.586;2023-03-04T10:56:55;97963.28;;;3.05;100.00
43155;BME280;34212;51.018;13.586;2023-03-04T11:02:12;97960.91;;;3.44;100.00
43155;BME280;34212;51.018;13.586;2023-03-04T11:07:14;97956.94;;;3.59;99.47
43155;BME280;34212;51.018;13.586;2023-03-04T11:12:19;97949.19;;;3.67;98.79
43155;BME280;34212;51.018;13.586;2023-03-04T11:17:33;97958.09;;;3.76;98.28
43155;BME280;34212;51.018;13.586;2023-03-04T11:22:44;97941.44;;;3.76;98.16
43155;BME280;34212;51.018;13.586;2023-03-04T11:27:47;97946.06;;;3.83;98.12
43155;BME280;34212;51.018;13.586;2023-03-04T11:32:56;97940.81;;;3.93;96.78
43155;BME280;34212;51.018;13.586;2023-03-04T11:38:19;97930.94;;;3.95;97.60
43155;BME280;34212;51.018;13.586;2023-03-04T11:43:36;97935.84;;;4.00;96.83
43155;BME280;34212;51.018;13.586;2023-03-04T12:20:32;97909.19;;;4.22;96.49
43155;BME280;34212;51.018;13.586;2023-03-04T12:25:43;97894.91;;;4.25;97.14
43155;BME280;34212;51.018;13.586;2023-03-04T12:31:06;97887.41;;;4.39;96.96
43155;BME280;34212;51.018;13.586;2023-03-04T12:36:20;97867.66;;;4.44;95.75
43155;BME280;34212;51.018;13.586;2023-03-04T12:47:08;97880.44;;;4.58;96.54
43155;BME280;34212;51.018;13.586;2023-03-04T12:57:27;97870.41;;;4.81;95.56
43155;BME280;34212;51.018;13.586;2023-03-04T13:03:11;97868.72;;;4.70;95.67
43155;BME280;34212;51.018;13.586;2023-03-04T13:13:38;97856.25;;;4.62;95.21
43155;BME280;34212;51.018;13.586;2023-03-04T13:18:40;97863.31;;;4.72;96.45
43155;BME280;34212;51.018;13.586;2023-03-04T13:23:42;97862.75;;;4.78;95.34
43155;BME280;34212;51.018;13.586;2023-03-04T13:28:43;97853.56;;;4.82;94.80
43155;BME280;34212;51.018;13.586;2023-03-04T13:49:34;97846.44;;;5.02;93.90
43155;BME280;34212;51.018;13.586;2023-03-04T13:54:35;97851.84;;;5.00;94.14
43155;BME280;34212;51.018;13.586;2023-03-04T13:59:38;97831.16;;;4.96;94.12
43155;BME280;34212;51.018;13.586;2023-03-04T14:04:44;97835.84;;;4.92;93.68
43155;BME280;34212;51.018;13.586;2023-03-04T14:14:57;97827.78;;;5.03;94.13
43155;BME280;34212;51.018;13.586;2023-03-04T14:19:59;97845.00;;;5.07;93.78
43155;BME280;34212;51.018;13.586;2023-03-04T14:30:22;97833.06;;;5.03;92.95
43155;BME280;34212;51.018;13.586;2023-03-04T14:35:47;97825.00;;;5.05;93.06
43155;BME280;34212;51.018;13.586;2023-03-04T14:41:17;97814.66;;;5.12;93.12
43155;BME280;34212;51.018;13.586;2023-03-04T14:46:21;97811.88;;;5.13;93.00
43155;BME280;34212;51.018;13.586;2023-03-04T14:51:47;97810.91;;;5.14;92.05
43155;BME280;34212;51.018;13.586;2023-03-04T14:56:49;97813.00;;;5.10;92.80
43155;BME280;34212;51.018;13.586;2023-03-04T15:01:50;97810.84;;;4.96;92.11
43155;BME280;34212;51.018;13.586;2023-03-04T15:06:52;97811.72;;;4.77;92.41
43155;BME280;34212;51.018;13.586;2023-03-04T15:12:00;97806.47;;;4.68;91.94
43155;BME280;34212;51.018;13.586;2023-03-04T15:17:03;97808.97;;;4.59;92.53
43155;BME280;34212;51.018;13.586;2023-03-04T15:22:06;97804.53;;;4.60;92.27
43155;BME280;34212;51.018;13.586;2023-03-04T15:27:10;97803.25;;;4.64;92.52
43155;BME280;34212;51.018;13.586;2023-03-04T15:32:12;97806.47;;;4.68;92.56
43155;BME280;34212;51.018;13.586;2023-03-04T15:37:19;97804.22;;;4.73;92.18
43155;BME280;34212;51.018;13.586;2023-03-04T15:42:21;97812.28;;;4.71;92.69
43155;BME280;34212;51.018;13.586;2023-03-04T15:47:23;97810.75;;;4.69;91.53
43155;BME280;34212;51.018;13.586;2023-03-04T15:52:25;97815.50;;;4.65;91.71
43155;BME280;34212;51.018;13.586;2023-03-04T15:57:27;97813.69;;;4.66;91.34
43155;BME280;34212;51.018;13.586;2023-03-04T16:02:29;97817.03;;;4.68;92.12
43155;BME280;34212;51.018;13.586;2023-03-04T16:07:30;97821.47;;;4.67;91.02
43155;BME280;34212;51.018;13.586;2023-03-04T16:12:32;97805.91;;;4.64;91.06
43155;BME280;34212;51.018;13.586;2023-03-04T16:17:34;97817.59;;;4.61;90.99
43155;BME280;34212;51.018;13.586;2023-03-04T16:22:36;97819.00;;;4.56;91.22
43155;BME280;34212;51.018;13.586;2023-03-04T16:27:37;97826.94;;;4.46;90.83
43155;BME280;34212;51.018;13.586;2023-03-04T16:32:39;97820.97;;;4.34;90.84
43155;BME280;34212;51.018;13.586;2023-03-04T16:37:41;97814.31;;;4.30;90.69
43155;BME280;34212;51.018;13.586;2023-03-04T16:42:43;97837.09;;;4.31;91.62
43155;BME280;34212;51.018;13.586;2023-03-04T16:47:45;97838.47;;;4.06;90.62
43155;BME280;34212;51.018;13.586;2023-03-04T16:52:47;97830.94;;;3.73;91.27
43155;BME280;34212;51.018;13.586;2023-03-04T16:57:50;97831.47;;;3.57;93.13
43155;BME280;34212;51.018;13.586;2023-03-04T17:02:58;97829.63;;;3.47;93.07
43155;BME280;34212;51.018;13.586;2023-03-04T17:07:59;97833.38;;;3.45;93.90
43155;BME280;34212;51.018;13.586;2023-03-04T17:13:01;97836.28;;;3.42;93.92
43155;BME280;34212;51.018;13.586;2023-03-04T17:18:02;97844.06;;;3.43;94.19
43155;BME280;34212;51.018;13.586;2023-03-04T17:23:04;97839.63;;;3.44;93.68
43155;BME280;34212;51.018;13.586;2023-03-04T17:28:06;97844.19;;;3.42;93.82
43155;BME280;34212;51.018;13.586;2023-03-04T17:33:07;97844.19;;;3.42;94.17
43155;BME280;34212;51.018;13.586;2023-03-04T17:38:08;97846.81;;;3.42;93.63
43155;BME280;34212;51.018;13.586;2023-03-04T17:43:10;97849.44;;;3.42;93.69
43155;BME280;34212;51.018;13.586;2023-03-04T17:48:12;97848.78;;;3.40;94.13
43155;BME280;34212;51.018;13.586;2023-03-04T17:53:15;97839.16;;;3.39;94.02
43155;BME280;34212;51.018;13.586;2023-03-04T17:58:17;97842.53;;;3.41;92.99
43155;BME280;34212;51.018;13.586;2023-03-04T18:03:19;97852.22;;;3.40;93.14
43155;BME280;34212;51.018;13.586;2023-03-04T18:08:21;97847.78;;;3.41;93.97
43155;BME280;34212;51.018;13.586;2023-03-04T18:13:24;97851.41;;;3.40;93.74
43155;BME280;34212;51.018;13.586;2023-03-04T18:18:25;97843.50;;;3.40;93.21
43155;BME280;34212;51.018;13.586;2023-03-04T18:23:27;97844.19;;;3.42;93.44
43155;BME280;34212;51.018;13.586;2023-03-04T18:28:29;97840.59;;;3.43;93.53
43155;BME280;34212;51.018;13.586;2023-03-04T18:33:31;97845.72;;;3.44;92.85
43155;BME280;34212;51.018;13.586;2023-03-04T18:38:33;97842.53;;;3.41;93.29
43155;BME280;34212;51.018;13.586;2023-03-04T18:43:35;97843.63;;;3.38;93.51
43155;BME280;34212;51.018;13.586;2023-03-04T18:48:40;97839.16;;;3.39;93.05
43155;BME280;34212;51.018;13.586;2023-03-04T18:53:43;97847.22;;;3.37;92.84
43155;BME280;34212;51.018;13.586;2023-03-04T18:58:46;97846.25;;;3.38;93.65
43155;BME280;34212;51.018;13.586;2023-03-04T19:03:49;97848.06;;;3.38;93.22
43155;BME280;34212;51.018;13.586;2023-03-04T19:08:51;97848.78;;;3.40;93.80
43155;BME280;34212;51.018;13.586;2023-03-04T19:13:55;97849.72;;;3.39;93.53
43155;BME280;34212;51.018;13.586;2023-03-04T19:18:57;97845.53;;;3.36;93.53
43155;BME280;34212;51.018;13.586;2023-03-04T19:23:58;97856.94;;;3.37;93.38
43155;BME280;34212;51.018;13.586;2023-03-04T19:28:59;97852.50;;;3.37;93.70
43155;BME280;34212;51.018;13.586;2023-03-04T19:34:01;97850.53;;;3.39;93.52
43155;BME280;34212;51.018;13.586;2023-03-04T19:39:03;97855.00;;;3.39;92.92
43155;BME280;34212;51.018;13.586;2023-03-04T19:44:04;97859.69;;;3.35;93.32
43155;BME280;34212;51.018;13.586;2023-03-04T19:49:06;97861.22;;;3.28;92.80
43155;BME280;34212;51.018;13.586;2023-03-04T19:54:07;97862.13;;;3.17;93.30
43155;BME280;34212;51.018;13.586;2023-03-04T19:59:10;97860.97;;;3.10;93.15
43155;BME280;34212;51.018;13.586;2023-03-04T20:04:15;97862.22;;;3.06;93.77
43155;BME280;34212;51.018;13.586;2023-03-04T20:09:19;97862.84;;;2.98;94.21
43155;BME280;34212;51.018;13.586;2023-03-04T20:14:21;97866.72;;;2.94;94.22
43155;BME280;34212;51.018;13.586;2023-03-04T20:19:23;97874.50;;;2.96;95.01
43155;BME280;34212;51.018;13.586;2023-03-04T20:24:25;97868.78;;;2.91;94.44
43155;BME280;34212;51.018;13.586;2023-03-04T20:29:28;97869.31;;;2.85;94.56
43155;BME280;34212;51.018;13.586;2023-03-04T20:34:30;97868.59;;;2.83;94.34
43155;BME280;34212;51.018;13.586;2023-03-04T20:39:32;97861.66;;;2.82;95.02
43155;BME280;34212;51.018;13.586;2023-03-04T20:44:34;97864.31;;;2.82;94.73
43155;BME280;34212;51.018;13.586;2023-03-04T20:49:36;97868.84;;;2.80;95.10
43155;BME280;34212;51.018;13.586;2023-03-04T20:54:38;97869.31;;;2.85;95.43
43155;BME280;34212;51.018;13.586;2023-03-04T20:59:40;97861.72;;;2.91;94.79
43155;BME280;34212;51.018;13.586;2023-03-04T21:04:42;97863.38;;;2.92;94.58
43155;BME280;34212;51.018;13.586;2023-03-04T21:09:44;97862.81;;;2.89;94.96
43155;BME280;34212;51.018;13.586;2023-03-04T21:14:46;97854.22;;;2.87;94.58
43155;BME280;34212;51.018;13.586;2023-03-04T21:19:47;97850.72;;;2.86;94.28
43155;BME280;34212;51.018;13.586;2023-03-04T21:24:48;97846.59;;;2.84;94.02
43155;BME280;34212;51.018;13.586;2023-03-04T21:29:50;97853.63;;;2.83;94.28
43155;BME280;34212;51.018;13.586;2023-03-04T21:34:53;97844.78;;;2.84;94.02
43155;BME280;34212;51.018;13.586;2023-03-04T21:39:56;97860.59;;;2.84;94.20
43155;BME280;34212;51.018;13.586;2023-03-04T21:44:58;97858.22;;;2.81;93.47
43155;BME280;34212;51.018;13.586;2023-03-04T21:49:59;97856.66;;;2.78;93.42
43155;BME280;34212;51.018;13.586;2023-03-04T21:55:01;97846.38;;;2.75;93.61
43155;BME280;34212;51.018;13.586;2023-03-04T22:00:03;97849.03;;;2.75;93.73
43155;BME280;34212;51.018;13.586;2023-03-04T22:05:12;97846.38;;;2.75;94.34
43155;BME280;34212;51.018;13.586;2023-03-04T22:10:13;97828.78;;;2.76;94.30
43155;BME280;34212;51.018;13.586;2023-03-04T22:15:15;97821.03;;;2.74;94.01
43155;BME280;34212;51.018;13.586;2023-03-04T22:20:16;97816.84;;;2.72;93.57
43155;BME280;34212;51.018;13.586;2023-03-04T22:25:18;97822.78;;;2.74;94.04
43155;BME280;34212;51.018;13.586;2023-03-04T22:30:19;97811.75;;;2.80;94.30
43155;BME280;34212;51.018;13.586;2023-03-04T22:35:21;97806.47;;;2.80;93.94
43155;BME280;34212;51.018;13.586;2023-03-04T22:40:22;97807.34;;;2.81;94.48
43155;BME280;34212;51.018;13.586;2023-03-04T22:45:24;97807.34;;;2.81;93.90
43155;BME280;34212;51.018;13.586;2023-03-04T22:50:28;97814.53;;;2.78;93.34
43155;BME280;34212;51.018;13.586;2023-03-04T22:55:29;97815.88;;;2.73;93.71
43155;BME280;34212;51.018;13.586;2023-03-04T23:00:31;97811.84;;;2.69;93.85
43155;BME280;34212;51.018;13.586;2023-03-04T23:05:32;97806.69;;;2.67;93.85
43155;BME280;34212;51.018;13.586;2023-03-04T23:10:34;97791.16;;;2.64;93.06
43155;BME280;34212;51.018;13.586;2023-03-04T23:15:35;97801.13;;;2.61;93.58
43155;BME280;34212;51.018;13.586;2023-03-04T23:20:37;97801.94;;;2.61;93.25
43155;BME280;34212;51.018;13.586;2023-03-04T23:25:42;97800.69;;;2.56;92.73
43155;BME280;34212;51.018;13.586;2023-03-04T23:30:46;97783.59;;;2.50;92.35
43155;BME280;34212;51.018;13.586;2023-03-04T23:35:47;97784.81;;;2.46;92.85
43155;BME280;34212;51.018;13.586;2023-03-04T23:40:49;97784.13;;;2.44;92.57
43155;BME280;34212;51.018;13.586;2023-03-04T23:45:50;97787.19;;;2.49;92.58
43155;BME280;34212;51.018;13.586;2023-03-04T23:50:52;97786.34;;;2.48;92.38
43155;BME280;34212;51.018;13.586;2023-03-04T23:55:54;97776.09;;;2.45;91.78
